Time,TemperatureF,DewpointF,PressureIn,WindDirection,WindDirectionDegrees,WindSpeedMPH,WindSpeedGustMPH,Humidity,HourlyPrecipIn,Conditions,Clouds,dailyrainin,SoftwareType,DateUTC
2013-10-03 00:00:00,50.4,47.6,29.73,NW,315,2.2,-999.0,90,-99.99,,,0.00,Acu-Link.com,2013-10-03 05:00:00,
2013-10-03 00:15:00,50.2,47.4,29.74,WNW,292,1.7,-999.0,90,-99.99,,,0.00,Acu-Link.com,2013-10-03 05:15:00,
2013-10-03 00:30:00,50.2,47.4,29.73,NNW,337,1.1,-999.0,90,-99.99,,,0.00,Acu-Link.com,2013-10-03 05:30:00,
2013-10-03 00:45:00,50.0,47.2,29.74,NW,315,1.7,-999.0,90,-99.99,,,0.00,Acu-Link.com,2013-10-03 05:45:00,
2013-10-03 01:02:00,50.0,47.2,29.73,NNW,337,1.1,-999.0,90,-99.99,,,0.00,Acu-Link.com,2013-10-03 06:02:00,
2013-10-03 01:17:00,49.8,47.0,29.73,NNW,337,1.7,-999.0,90,-99.99,,,0.00,Acu-Link.com,2013-10-03 06:17:00,
2013-10-03 01:33:00,49.8,47.0,29.74,NE,45,1.7,-999.0,90,-99.99,,,0.00,Acu-Link.com,2013-10-03 06:33:00,
2013-10-03 01:48:00,49.6,46.8,29.73,NNW,337,1.7,-999.0,90,-99.99,,,0.00,Acu-Link.com,2013-10-03 06:48:00,
2013-10-03 02:03:00,49.6,46.8,29.73,West,270,0.0,-999.0,90,-99.99,,,0.00,Acu-Link.com,2013-10-03 07:03:00,
2013-10-03 02:18:00,49.8,47.0,29.73,NW,315,2.2,-999.0,90,-99.99,,,0.00,Acu-Link.com,2013-10-03 07:18:00,
2013-10-03 02:34:00,49.8,47.3,29.73,NNE,22,3.7,-999.0,91,-99.99,,,0.00,Acu-Link.com,2013-10-03 07:34:00,
2013-10-03 02:49:00,50.0,47.5,29.73,NNE,22,1.7,-999.0,91,-99.99,,,0.00,Acu-Link.com,2013-10-03 07:49:00,
2013-10-03 03:06:00,50.2,47.7,29.73,NNE,22,1.7,-999.0,91,-99.99,,,0.00,Acu-Link.com,2013-10-03 08:06:00,
2013-10-03 03:21:00,50.2,47.7,29.74,North,0,3.2,-999.0,91,-99.99,,,0.00,Acu-Link.com,2013-10-03 08:21:00,
2013-10-03 03:36:00,50.4,47.9,29.74,NNE,22,2.2,-999.0,91,-99.99,,,0.00,Acu-Link.com,2013-10-03 08:36:00,
2013-10-03 03:51:00,50.4,47.9,29.74,NW,315,1.7,-999.0,91,-99.99,,,0.00,Acu-Link.com,2013-10-03 08:51:00,
2013-10-03 04:06:00,50.5,48.0,29.74,South,180,0.0,-999.0,91,-99.99,,,0.00,Acu-Link.com,2013-10-03 09:06:00,
2013-10-03 04:22:00,50.7,48.2,29.73,WNW,292,1.1,-999.0,91,-99.99,,,0.00,Acu-Link.com,2013-10-03 09:22:00,
2013-10-03 04:37:00,51.3,48.8,29.74,NW,315,1.7,-999.0,91,-99.99,,,0.00,Acu-Link.com,2013-10-03 09:37:00,
2013-10-03 04:52:00,51.3,48.8,29.73,North,0,3.7,-999.0,91,-99.99,,,0.00,Acu-Link.com,2013-10-03 09:52:00,
2013-10-03 05:07:00,51.4,48.9,29.73,NNE,22,2.7,-999.0,91,-99.99,,,0.00,Acu-Link.com,2013-10-03 10:07:00,
2013-10-03 05:22:00,51.4,48.9,29.73,North,0,0.0,-999.0,91,-99.99,,,0.00,Acu-Link.com,2013-10-03 10:22:00,
2013-10-03 05:37:00,51.6,49.1,29.73,NW,315,1.1,-999.0,91,-99.99,,,0.00,Acu-Link.com,2013-10-03 10:37:00,
2013-10-03 05:53:00,51.6,49.1,29.74,NNW,337,1.1,-999.0,91,-99.99,,,0.00,Acu-Link.com,2013-10-03 10:53:00,
2013-10-03 06:08:00,51.6,49.1,29.73,NNE,22,3.2,-999.0,91,-99.99,,,0.00,Acu-Link.com,2013-10-03 11:08:00,
2013-10-03 06:23:00,51.6,49.1,29.73,West,270,4.7,-999.0,91,-99.99,,,0.00,Acu-Link.com,2013-10-03 11:23:00,
2013-10-03 06:38:00,51.6,49.1,29.74,NW,315,3.2,-999.0,91,-99.99,,,0.00,Acu-Link.com,2013-10-03 11:38:00,
2013-10-03 06:53:00,51.6,49.1,29.74,West,270,2.7,-999.0,91,-99.99,,,0.00,Acu-Link.com,2013-10-03 11:53:00,
2013-10-03 07:08:00,51.6,49.1,29.75,SE,135,2.2,-999.0,91,-99.99,,,0.00,Acu-Link.com,2013-10-03 12:08:00,
2013-10-03 07:23:00,51.6,49.1,29.75,West,270,1.1,-999.0,91,-99.99,,,0.00,Acu-Link.com,2013-10-03 12:23:00,
2013-10-03 07:39:00,51.6,49.1,29.74,North,0,3.2,-999.0,91,-99.99,,,0.00,Acu-Link.com,2013-10-03 12:39:00,
2013-10-03 07:54:00,51.8,49.3,29.74,West,270,1.7,-999.0,91,-99.99,,,0.00,Acu-Link.com,2013-10-03 12:54:00,
2013-10-03 08:09:00,51.8,49.3,29.74,NNW,337,2.7,-999.0,91,-99.99,,,0.00,Acu-Link.com,2013-10-03 13:09:00,
2013-10-03 08:24:00,51.8,49.3,29.74,West,270,2.7,-999.0,91,-99.99,,,0.00,Acu-Link.com,2013-10-03 13:24:00,
2013-10-03 08:39:00,51.8,49.3,29.73,NNW,337,3.2,-999.0,91,-99.99,,,0.00,Acu-Link.com,2013-10-03 13:39:00,
2013-10-03 08:55:00,51.8,49.3,29.73,NNW,337,1.7,-999.0,91,-99.99,,,0.00,Acu-Link.com,2013-10-03 13:55:00,
2013-10-03 09:10:00,51.8,49.3,29.72,WNW,292,3.7,-999.0,91,-99.99,,,0.00,Acu-Link.com,2013-10-03 14:10:00,
2013-10-03 09:25:00,52.0,49.5,29.73,WNW,292,1.1,-999.0,91,-99.99,,,0.00,Acu-Link.com,2013-10-03 14:25:00,
2013-10-03 09:40:00,52.2,49.7,29.73,NNW,337,1.1,-999.0,91,-99.99,,,0.00,Acu-Link.com,2013-10-03 14:40:00,
2013-10-03 09:55:00,52.3,49.8,29.73,WNW,292,1.1,-999.0,91,-99.99,,,0.00,Acu-Link.com,2013-10-03 14:55:00,
2013-10-03 10:11:00,52.5,49.9,29.73,ESE,112,1.7,-999.0,91,-99.99,,,0.00,Acu-Link.com,2013-10-03 15:11:00,
2013-10-03 10:26:00,52.5,49.9,29.75,WSW,247,0.0,-999.0,91,-99.99,,,0.01,Acu-Link.com,2013-10-03 15:26:00,
2013-10-03 10:41:00,52.5,49.9,29.74,NNW,337,3.2,-999.0,91,-99.99,,,0.16,Acu-Link.com,2013-10-03 15:41:00,
2013-10-03 10:56:00,52.7,50.1,29.74,SSE,157,0.0,-999.0,91,-99.99,,,0.40,Acu-Link.com,2013-10-03 15:56:00,
2013-10-03 11:11:00,52.7,50.1,29.75,West,270,3.7,-999.0,91,-99.99,,,0.40,Acu-Link.com,2013-10-03 16:11:00,
2013-10-03 11:26:00,52.9,50.3,29.74,North,0,1.7,-999.0,91,-99.99,,,0.41,Acu-Link.com,2013-10-03 16:26:00,
2013-10-03 11:42:00,53.1,50.5,29.75,WNW,292,1.7,-999.0,91,-99.99,,,0.41,Acu-Link.com,2013-10-03 16:42:00,
2013-10-03 11:57:00,53.1,50.8,29.75,WNW,292,2.7,-999.0,92,-99.99,,,0.41,Acu-Link.com,2013-10-03 16:57:00,
2013-10-03 12:12:00,53.2,50.9,29.75,NW,315,2.2,-999.0,92,-99.99,,,0.41,Acu-Link.com,2013-10-03 17:12:00,
2013-10-03 12:27:00,53.2,50.9,29.75,NNW,337,2.2,-999.0,92,-99.99,,,0.41,Acu-Link.com,2013-10-03 17:27:00,
2013-10-03 12:42:00,53.4,51.1,29.75,West,270,2.7,-999.0,92,-99.99,,,0.41,Acu-Link.com,2013-10-03 17:42:00,
2013-10-03 12:58:00,53.2,50.9,29.74,WNW,292,1.7,-999.0,92,-99.99,,,0.42,Acu-Link.com,2013-10-03 17:58:00,
2013-10-03 13:13:00,53.1,50.8,29.74,West,270,1.7,-999.0,92,-99.99,,,0.42,Acu-Link.com,2013-10-03 18:13:00,
2013-10-03 13:28:00,52.9,50.6,29.75,North,0,2.7,-999.0,92,-99.99,,,0.42,Acu-Link.com,2013-10-03 18:28:00,
2013-10-03 13:43:00,52.9,50.6,29.74,NW,315,3.7,-999.0,92,-99.99,,,0.44,Acu-Link.com,2013-10-03 18:43:00,
2013-10-03 13:58:00,52.9,50.6,29.74,WNW,292,2.2,-999.0,92,-99.99,,,0.55,Acu-Link.com,2013-10-03 18:58:00,
2013-10-03 14:13:00,52.9,50.6,29.74,NNW,337,3.2,-999.0,92,-99.99,,,0.55,Acu-Link.com,2013-10-03 19:13:00,
2013-10-03 14:29:00,52.9,50.6,29.73,NE,45,2.2,-999.0,92,-99.99,,,0.55,Acu-Link.com,2013-10-03 19:29:00,
2013-10-03 14:44:00,52.9,50.6,29.73,NE,45,2.7,-999.0,92,-99.99,,,0.56,Acu-Link.com,2013-10-03 19:44:00,
2013-10-03 14:59:00,52.9,50.6,29.74,SW,225,2.2,-999.0,92,-99.99,,,0.56,Acu-Link.com,2013-10-03 19:59:00,
2013-10-03 15:14:00,52.9,50.6,29.74,NE,45,1.1,-999.0,92,-99.99,,,0.56,Acu-Link.com,2013-10-03 20:14:00,
2013-10-03 15:29:00,52.9,50.6,29.74,East,90,3.7,-999.0,92,-99.99,,,0.56,Acu-Link.com,2013-10-03 20:29:00,
2013-10-03 15:45:00,52.9,50.6,29.74,West,270,2.2,-999.0,92,-99.99,,,0.58,Acu-Link.com,2013-10-03 20:45:00,
2013-10-03 16:00:00,52.9,50.6,29.75,NW,315,2.2,-999.0,92,-99.99,,,0.60,Acu-Link.com,2013-10-03 21:00:00,
2013-10-03 16:15:00,52.9,50.6,29.75,WNW,292,1.7,-999.0,92,-99.99,,,0.60,Acu-Link.com,2013-10-03 21:15:00,
2013-10-03 16:31:00,52.9,50.6,29.76,WNW,292,2.7,-999.0,92,-99.99,,,0.60,Acu-Link.com,2013-10-03 21:31:00,
2013-10-03 16:46:00,52.9,50.6,29.74,NE,45,3.7,-999.0,92,-99.99,,,0.61,Acu-Link.com,2013-10-03 21:46:00,
2013-10-03 17:01:00,52.9,50.6,29.74,NE,45,1.1,-999.0,92,-99.99,,,0.61,Acu-Link.com,2013-10-03 22:01:00,
2013-10-03 17:16:00,52.9,50.6,29.75,NNW,337,1.1,-999.0,92,-99.99,,,0.61,Acu-Link.com,2013-10-03 22:16:00,
2013-10-03 17:31:00,52.9,50.6,29.75,NNW,337,1.1,-999.0,92,-99.99,,,0.61,Acu-Link.com,2013-10-03 22:31:00,
2013-10-03 17:47:00,52.9,50.6,29.75,North,0,2.2,-999.0,92,-99.99,,,0.61,Acu-Link.com,2013-10-03 22:47:00,
2013-10-03 18:02:00,52.9,50.6,29.75,WSW,247,1.1,-999.0,92,-99.99,,,0.61,Acu-Link.com,2013-10-03 23:02:00,
2013-10-03 18:17:00,52.9,50.6,29.74,NNE,22,4.7,-999.0,92,-99.99,,,0.61,Acu-Link.com,2013-10-03 23:17:00,
2013-10-03 18:32:00,52.9,50.6,29.72,West,270,4.2,-999.0,92,-99.99,,,0.61,Acu-Link.com,2013-10-03 23:32:00,
2013-10-03 18:47:00,52.7,50.4,29.74,NW,315,1.7,-999.0,92,-99.99,,,0.61,Acu-Link.com,2013-10-03 23:47:00,
2013-10-03 19:02:00,52.7,50.4,29.75,NNW,337,2.7,-999.0,92,-99.99,,,0.61,Acu-Link.com,2013-10-04 00:02:00,
2013-10-03 19:18:00,52.7,50.4,29.77,West,270,2.7,-999.0,92,-99.99,,,0.61,Acu-Link.com,2013-10-04 00:18:00,
2013-10-03 19:33:00,52.7,50.4,29.77,NW,315,2.2,-999.0,92,-99.99,,,0.61,Acu-Link.com,2013-10-04 00:33:00,
2013-10-03 19:48:00,52.7,50.4,29.78,NNW,337,1.7,-999.0,92,-99.99,,,0.62,Acu-Link.com,2013-10-04 00:48:00,
2013-10-03 20:03:00,52.7,50.4,29.78,WNW,292,2.7,-999.0,92,-99.99,,,0.64,Acu-Link.com,2013-10-04 01:03:00,
2013-10-03 20:18:00,52.7,50.4,29.78,WNW,292,2.2,-999.0,92,-99.99,,,0.64,Acu-Link.com,2013-10-04 01:18:00,
2013-10-03 20:34:00,52.7,50.4,29.78,West,270,1.7,-999.0,92,-99.99,,,0.64,Acu-Link.com,2013-10-04 01:34:00,
2013-10-03 20:49:00,52.7,50.4,29.79,NNW,337,2.7,-999.0,92,-99.99,,,0.64,Acu-Link.com,2013-10-04 01:49:00,
2013-10-03 21:04:00,52.7,50.4,29.79,NNW,337,2.2,-999.0,92,-99.99,,,0.64,Acu-Link.com,2013-10-04 02:04:00,
2013-10-03 21:19:00,52.5,50.2,29.80,NW,315,3.7,-999.0,92,-99.99,,,0.64,Acu-Link.com,2013-10-04 02:19:00,
2013-10-03 21:34:00,52.3,50.0,29.81,NNW,337,2.2,-999.0,92,-99.99,,,0.64,Acu-Link.com,2013-10-04 02:34:00,
2013-10-03 21:49:00,52.3,50.0,29.82,North,0,2.2,-999.0,92,-99.99,,,0.64,Acu-Link.com,2013-10-04 02:49:00,
2013-10-03 22:04:00,52.2,49.9,29.82,NE,45,3.2,-999.0,92,-99.99,,,0.64,Acu-Link.com,2013-10-04 03:04:00,
2013-10-03 22:19:00,52.2,49.9,29.83,WNW,292,2.2,-999.0,92,-99.99,,,0.64,Acu-Link.com,2013-10-04 03:19:00,
2013-10-03 22:35:00,52.2,49.9,29.83,North,0,2.2,-999.0,92,-99.99,,,0.64,Acu-Link.com,2013-10-04 03:35:00,
2013-10-03 22:50:00,51.8,49.6,29.84,NNE,22,3.7,-999.0,92,-99.99,,,0.64,Acu-Link.com,2013-10-04 03:50:00,
2013-10-03 23:36:00,51.3,49.1,29.83,NNE,22,2.2,-999.0,92,-99.99,,,0.66,Acu-Link.com,2013-10-04 04:36:00,
2013-10-03 23:51:00,51.1,48.9,29.83,NNW,337,6.8,-999.0,92,-99.99,,,0.67,Acu-Link.com,2013-10-04 04:51:00,